Time;durP1;ratioP1;P1;durP2;ratioP2;P2;SDS_P1;SDS_P2;PMS_P1;PMS_P2;Temp;Humidity;BMP_temperature;BMP_pressure;BME280_temperature;BME280_humidity;BME280_pressure;Samples;Min_cycle;Max_cycle;Signal;HPM_P1;HPM_P2
2022/01/11 00:00:31;;;;;;;57.22;26.92;;;4.70;99.90;;;;;;5025978;28;20029;-53
2022/01/11 00:02:57;;;;;;;52.38;24.50;;;4.70;99.90;;;;;;5031590;28;20132;-55
2022/01/11 00:05:29;;;;;;;58.83;27.15;;;4.70;99.90;;;;;;5030797;28;20028;-52
2022/01/11 00:07:55;;;;;;;;;;;4.60;99.90;;;;;;5033291;28;20030;-52
2022/01/11 00:10:34;;;;;;;58.33;27.65;;;4.60;99.90;;;;;;5030671;28;19940;-54
2022/01/11 00:13:00;;;;;;;54.63;26.13;;;4.60;99.90;;;;;;5030565;28;20060;-52
2022/01/11 00:15:28;;;;;;;55.55;26.42;;;4.60;99.90;;;;;;5031943;28;20109;-53
2022/01/11 00:17:55;;;;;;;57.00;26.15;;;4.60;99.90;;;;;;5030685;28;20061;-53
2022/01/11 00:20:21;;;;;;;56.42;26.63;;;4.60;99.90;;;;;;5029564;28;20037;-53
2022/01/11 00:25:22;;;;;;;55.42;26.50;;;4.50;99.90;;;;;;5030554;28;20033;-55
2022/01/11 00:27:48;;;;;;;56.45;26.50;;;4.50;99.90;;;;;;5031145;28;20044;-57
2022/01/11 00:30:14;;;;;;;50.90;25.80;;;4.50;99.90;;;;;;5030076;28;20035;-57
2022/01/11 00:32:45;;;;;;;49.97;24.58;;;4.60;99.90;;;;;;5031219;28;20441;-55
2022/01/11 00:35:15;;;;;;;52.50;25.63;;;4.50;99.90;;;;;;5030559;28;20033;-54
2022/01/11 00:37:40;;;;;;;52.70;24.80;;;4.50;99.90;;;;;;5031299;28;20025;-56
2022/01/11 00:40:08;;;;;;;52.03;24.58;;;4.50;99.90;;;;;;5029631;28;20470;-55
2022/01/11 00:42:34;;;;;;;50.80;24.63;;;4.50;99.90;;;;;;5031040;28;20037;-57
2022/01/11 00:45:03;;;;;;;49.85;23.48;;;4.50;99.90;;;;;;5030040;28;20589;-56
2022/01/11 00:47:28;;;;;;;48.85;23.90;;;4.50;99.90;;;;;;5022342;28;20031;-56
2022/01/11 00:49:55;;;;;;;55.58;25.77;;;4.50;99.90;;;;;;5027096;28;20034;-56
2022/01/11 00:52:20;;;;;;;49.83;23.70;;;4.40;99.90;;;;;;5027845;28;20116;-56
2022/01/11 00:54:46;;;;;;;48.83;24.58;;;4.40;99.90;;;;;;5032162;28;20442;-56
2022/01/11 00:57:12;;;;;;;52.35;24.10;;;4.50;99.90;;;;;;5033054;28;20025;-56
2022/01/11 00:59:37;;;;;;;49.42;24.60;;;4.50;99.90;;;;;;5023980;28;20053;-55
2022/01/11 01:02:03;;;;;;;49.85;25.02;;;4.50;99.90;;;;;;5033815;28;20521;-56
2022/01/11 01:04:29;;;;;;;48.78;24.40;;;4.50;99.90;;;;;;5033023;28;20111;-56
2022/01/11 01:06:55;;;;;;;48.42;24.08;;;4.50;99.90;;;;;;5032410;28;20087;-54
2022/01/11 01:09:20;;;;;;;52.47;24.13;;;4.40;99.90;;;;;;5031792;28;20041;-56
2022/01/11 01:11:47;;;;;;;54.20;23.45;;;4.50;99.90;;;;;;5032161;28;20065;-56
2022/01/11 01:14:13;;;;;;;50.28;22.92;;;4.50;99.90;;;;;;5033456;28;20025;-57
2022/01/11 01:16:39;;;;;;;56.22;24.95;;;4.50;99.90;;;;;;5031324;28;20033;-57
2022/01/11 01:19:05;;;;;;;56.38;24.75;;;4.50;99.90;;;;;;5032450;28;20025;-55
2022/01/11 01:21:37;;;;;;;48.03;23.98;;;4.40;99.90;;;;;;5031567;28;20029;-56
2022/01/11 01:24:05;;;;;;;49.10;23.87;;;4.40;99.90;;;;;;5033196;28;20118;-57
2022/01/11 01:26:31;;;;;;;54.38;25.95;;;4.30;99.90;;;;;;5030847;28;20037;-56
2022/01/11 01:28:59;;;;;;;54.78;24.58;;;4.40;99.90;;;;;;5031600;28;20033;-56
2022/01/11 01:31:25;;;;;;;52.55;24.70;;;4.40;99.90;;;;;;5025728;28;20029;-55
2022/01/11 01:33:51;;;;;;;52.90;24.20;;;4.40;99.90;;;;;;5027894;28;20041;-57
2022/01/11 01:36:17;;;;;;;58.25;25.92;;;4.40;99.90;;;;;;5033830;28;20025;-57
2022/01/11 01:38:43;;;;;;;58.95;25.83;;;4.40;99.90;;;;;;5032749;28;20434;-55
2022/01/11 01:41:14;;;;;;;55.33;24.42;;;4.40;99.90;;;;;;5034990;28;20041;-56
2022/01/11 01:43:40;;;;;;;54.17;25.30;;;4.50;99.90;;;;;;5032851;28;20071;-57
2022/01/11 01:46:06;;;;;;;54.20;24.05;;;4.40;99.90;;;;;;5032212;28;20383;-57
2022/01/11 01:48:32;;;;;;;62.72;25.70;;;4.40;99.90;;;;;;5032813;28;20021;-53
2022/01/11 01:50:58;;;;;;;57.75;25.42;;;4.50;99.90;;;;;;5032469;28;20378;-52
2022/01/11 01:53:25;;;;;;;56.10;25.58;;;4.50;99.90;;;;;;5034140;28;20116;-53
2022/01/11 01:55:51;;;;;;;53.30;24.67;;;4.50;99.90;;;;;;5032380;28;20321;-53
2022/01/11 01:58:17;;;;;;;58.10;26.10;;;4.40;99.90;;;;;;5033050;28;20028;-53
2022/01/11 02:00:50;;;;;;;62.92;25.27;;;4.40;99.90;;;;;;5030368;28;20478;-52
2022/01/11 02:03:17;;;;;;;60.67;25.48;;;4.40;99.90;;;;;;5029657;28;20044;-52
2022/01/11 02:05:44;;;;;;;73.82;28.23;;;4.40;99.90;;;;;;5027378;28;20065;-53
2022/01/11 02:08:11;;;;;;;56.45;25.83;;;4.40;99.90;;;;;;5032593;28;20031;-54
2022/01/11 02:10:37;;;;;;;56.28;26.25;;;4.40;99.90;;;;;;5030743;28;20022;-53
2022/01/11 02:13:05;;;;;;;61.53;27.13;;;4.50;99.90;;;;;;5032372;28;20029;-56
2022/01/11 02:15:30;;;;;;;55.67;26.20;;;4.50;99.90;;;;;;5031532;28;20033;-59
2022/01/11 02:18:10;;;;;;;60.80;26.92;;;4.50;99.90;;;;;;5031366;28;20152;-52
2022/01/11 02:20:38;;;;;;;54.58;24.67;;;4.60;99.90;;;;;;5023899;28;20026;-55
2022/01/11 02:23:04;;;;;;;55.72;25.63;;;4.50;99.90;;;;;;5030945;28;20084;-55
2022/01/11 02:25:29;;;;;;;52.28;24.52;;;4.50;99.90;;;;;;5031614;28;20022;-56
2022/01/11 02:27:55;;;;;;;63.88;27.30;;;4.50;99.90;;;;;;5031317;28;20442;-55
2022/01/11 02:30:20;;;;;;;51.42;25.30;;;4.50;99.90;;;;;;5030556;28;20029;-53
2022/01/11 02:32:51;;;;;;;69.90;26.60;;;4.50;99.90;;;;;;5035243;28;20048;-55
2022/01/11 02:35:17;;;;;;;60.58;26.17;;;4.50;99.90;;;;;;5032495;28;20021;-55
2022/01/11 02:37:43;;;;;;;62.17;25.77;;;4.50;99.90;;;;;;5032197;28;20037;-54
2022/01/11 02:40:09;;;;;;;63.55;27.70;;;4.40;99.90;;;;;;5030571;28;20418;-53
2022/01/11 02:42:35;;;;;;;58.45;25.75;;;4.30;99.90;;;;;;5031484;28;20444;-53
2022/01/11 02:45:00;;;;;;;62.42;26.38;;;4.30;99.90;;;;;;5031168;28;20108;-53
2022/01/11 02:47:26;;;;;;;56.40;26.92;;;4.30;99.90;;;;;;5023552;28;20475;-55
2022/01/11 02:49:52;;;;;;;52.15;25.48;;;4.40;99.90;;;;;;5028980;28;20029;-52
2022/01/11 02:52:17;;;;;;;55.53;26.70;;;4.30;99.90;;;;;;5031688;28;20025;-52
2022/01/11 02:54:43;;;;;;;61.15;26.95;;;4.40;99.90;;;;;;5030546;28;20025;-52
2022/01/11 02:57:08;;;;;;;61.33;27.25;;;4.40;99.90;;;;;;5031507;28;20103;-55
2022/01/11 02:59:34;;;;;;;61.53;27.20;;;4.30;99.90;;;;;;5030091;28;20406;-55
2022/01/11 03:02:00;;;;;;;69.05;27.73;;;4.30;99.90;;;;;;5031353;28;20072;-52
2022/01/11 03:04:30;;;;;;;72.30;28.17;;;4.30;99.90;;;;;;5031502;28;20076;-54
2022/01/11 03:06:56;;;;;;;63.20;27.35;;;4.30;99.90;;;;;;5031548;28;20033;-52
2022/01/11 03:09:23;;;;;;;67.50;27.67;;;4.20;99.90;;;;;;5028481;28;20092;-54
2022/01/11 03:11:49;;;;;;;63.40;25.75;;;4.30;99.90;;;;;;5025234;28;20037;-52
2022/01/11 03:14:15;;;;;;;68.90;27.60;;;4.30;99.90;;;;;;5030481;28;20084;-54
2022/01/11 03:16:40;;;;;;;62.88;26.60;;;4.30;99.90;;;;;;5030884;28;20025;-53
2022/01/11 03:19:06;;;;;;;61.38;26.80;;;4.30;99.90;;;;;;5030582;28;20032;-53
2022/01/11 03:21:31;;;;;;;60.10;26.58;;;4.30;99.90;;;;;;5030239;28;20025;-53
2022/01/11 03:23:57;;;;;;;64.40;28.02;;;4.30;99.90;;;;;;5016369;28;20050;-54
2022/01/11 03:26:23;;;;;;;63.30;25.90;;;4.30;99.90;;;;;;5030660;28;20132;-53
2022/01/11 03:28:49;;;;;;;66.15;27.02;;;4.30;99.90;;;;;;5032255;28;20315;-53
2022/01/11 03:31:15;;;;;;;63.60;25.55;;;4.20;99.90;;;;;;5030727;28;20057;-52
2022/01/11 03:33:40;;;;;;;71.10;29.48;;;4.20;99.90;;;;;;5032198;28;20391;-52
2022/01/11 03:36:06;;;;;;;65.13;27.25;;;4.20;99.90;;;;;;5024104;28;20025;-55
2022/01/11 03:38:33;;;;;;;63.15;28.27;;;4.20;99.90;;;;;;5012134;28;20018;-57
2022/01/11 03:40:59;;;;;;;64.80;27.73;;;4.20;99.90;;;;;;5026079;28;20124;-55
2022/01/11 03:43:26;;;;;;;70.53;30.08;;;4.30;99.90;;;;;;5031997;28;20152;-56
2022/01/11 03:45:51;;;;;;;65.47;27.52;;;4.30;99.90;;;;;;5030942;28;20075;-55
2022/01/11 03:48:18;;;;;;;71.45;28.23;;;4.30;99.90;;;;;;5031926;28;20022;-52
2022/01/11 03:50:51;;;;;;;66.50;27.35;;;4.40;99.90;;;;;;5030819;28;20026;-53
2022/01/11 03:53:18;;;;;;;73.00;29.25;;;4.40;99.90;;;;;;5031503;28;20040;-52
2022/01/11 03:56:26;;;;;;;71.13;29.23;;;4.40;99.90;;;;;;5031307;28;20083;-54
2022/01/11 03:58:34;;;;;;;65.93;27.40;;;4.40;99.90;;;;;;5021049;28;20084;-53
2022/01/11 04:00:59;;;;;;;69.00;27.63;;;4.50;99.90;;;;;;5031516;28;20080;-52
2022/01/11 04:03:25;;;;;;;71.65;27.77;;;4.50;99.90;;;;;;5031023;28;20033;-54
2022/01/11 04:05:51;;;;;;;77.13;29.33;;;4.50;99.90;;;;;;5030609;28;20030;-56
2022/01/11 04:08:17;;;;;;;65.28;27.45;;;4.50;99.90;;;;;;5030593;28;20033;-56
2022/01/11 04:10:43;;;;;;;79.25;27.60;;;4.50;99.90;;;;;;5030937;28;20030;-58
2022/01/11 04:13:08;;;;;;;76.30;28.02;;;4.50;99.90;;;;;;5030627;28;20160;-54
2022/01/11 04:15:34;;;;;;;86.35;28.77;;;4.40;99.90;;;;;;5030715;28;20029;-54
2022/01/11 04:18:00;;;;;;;83.47;29.20;;;4.50;99.90;;;;;;5030644;28;20025;-54
2022/01/11 04:20:25;;;;;;;89.55;29.45;;;4.50;99.90;;;;;;5031108;28;20053;-56
2022/01/11 04:22:51;;;;;;;88.70;29.45;;;4.50;99.90;;;;;;5030677;28;20049;-55
2022/01/11 04:25:18;;;;;;;91.82;28.67;;;4.50;99.90;;;;;;5030960;28;20044;-56
2022/01/11 04:27:44;;;;;;;77.90;27.80;;;4.40;99.90;;;;;;5032115;28;20041;-55
2022/01/11 04:30:10;;;;;;;80.85;27.13;;;4.50;99.90;;;;;;5033193;28;20452;-56
2022/01/11 04:32:35;;;;;;;76.18;25.90;;;4.50;99.90;;;;;;5017764;28;20025;-56
2022/01/11 04:35:02;;;;;;;73.85;24.63;;;4.50;99.90;;;;;;5034545;28;20037;-57
2022/01/11 04:37:27;;;;;;;79.13;24.75;;;4.50;99.90;;;;;;5035323;28;20030;-55
2022/01/11 04:39:53;;;;;;;69.03;24.30;;;4.50;99.90;;;;;;5034664;28;20079;-55
2022/01/11 04:42:19;;;;;;;69.97;23.13;;;4.50;99.90;;;;;;5035625;28;20041;-59
2022/01/11 04:44:44;;;;;;;77.82;23.88;;;4.50;99.90;;;;;;5034323;28;20049;-56
2022/01/11 04:47:10;;;;;;;65.38;24.20;;;4.50;99.90;;;;;;5035012;28;20045;-55
2022/01/11 04:49:35;;;;;;;64.57;22.42;;;4.50;99.90;;;;;;5033932;28;20108;-54
2022/01/11 04:52:02;;;;;;;58.97;21.45;;;4.50;99.90;;;;;;5008970;28;20030;-54
2022/01/11 04:54:27;;;;;;;56.65;19.65;;;4.50;99.90;;;;;;5034097;28;20079;-55
2022/01/11 04:56:53;;;;;;;68.70;22.92;;;4.50;99.90;;;;;;5034854;28;20029;-54
2022/01/11 04:59:19;;;;;;;62.70;21.75;;;4.40;99.90;;;;;;5034561;28;20044;-55
2022/01/11 05:01:45;;;;;;;63.95;20.02;;;4.40;99.90;;;;;;5034422;28;20022;-55
2022/01/11 05:04:12;;;;;;;69.55;21.80;;;4.40;99.90;;;;;;5033823;28;20044;-56
2022/01/11 05:06:38;;;;;;;56.45;22.63;;;4.40;99.90;;;;;;5034720;28;20009;-55
2022/01/11 05:09:04;;;;;;;65.82;22.20;;;4.40;99.90;;;;;;5033891;28;20034;-55
2022/01/11 05:11:30;;;;;;;66.05;21.60;;;4.40;99.90;;;;;;5033792;28;20108;-55
2022/01/11 05:13:55;;;;;;;63.83;21.35;;;4.40;99.90;;;;;;5033716;28;20033;-55
2022/01/11 05:16:21;;;;;;;58.75;20.88;;;4.50;99.90;;;;;;5034731;28;20038;-56
2022/01/11 05:18:47;;;;;;;61.17;22.05;;;4.50;99.90;;;;;;5034155;28;20091;-55
2022/01/11 05:21:12;;;;;;;56.85;20.73;;;4.50;99.90;;;;;;5034850;28;20033;-56
2022/01/11 05:23:38;;;;;;;64.13;23.10;;;4.40;99.90;;;;;;5033442;28;20304;-56
2022/01/11 05:26:04;;;;;;;63.47;22.20;;;4.40;99.90;;;;;;5034692;28;20029;-56
2022/01/11 05:28:30;;;;;;;60.30;22.52;;;4.40;99.90;;;;;;5033910;28;20029;-56
2022/01/11 05:30:55;;;;;;;61.33;21.45;;;4.40;99.90;;;;;;5034775;28;20041;-57
2022/01/11 05:33:21;;;;;;;63.03;21.45;;;4.40;99.90;;;;;;5033280;28;20037;-57
2022/01/11 05:35:47;;;;;;;61.63;22.73;;;4.30;99.90;;;;;;5029924;28;20541;-58
2022/01/11 05:38:13;;;;;;;60.85;21.30;;;4.30;99.90;;;;;;5034135;28;20040;-56
2022/01/11 05:40:39;;;;;;;65.38;20.98;;;4.30;99.90;;;;;;5033195;28;20064;-56
2022/01/11 05:43:06;;;;;;;67.97;24.20;;;4.30;99.90;;;;;;5034404;28;20034;-54
2022/01/11 05:45:32;;;;;;;65.57;23.83;;;4.30;99.90;;;;;;5034634;28;20068;-56
2022/01/11 05:47:58;;;;;;;75.93;22.70;;;4.20;99.90;;;;;;5034573;28;20075;-59
2022/01/11 05:50:24;;;;;;;60.90;22.35;;;4.20;99.90;;;;;;5034138;28;20029;-57
2022/01/11 05:52:50;;;;;;;68.28;22.75;;;4.20;99.90;;;;;;5033462;28;20037;-58
2022/01/11 05:55:17;;;;;;;55.90;20.70;;;4.10;99.90;;;;;;5035453;28;20112;-56
2022/01/11 05:57:43;;;;;;;54.17;19.90;;;4.10;99.90;;;;;;5035260;28;20057;-55
2022/01/11 06:00:14;;;;;;;61.50;20.55;;;4.10;99.90;;;;;;5033936;28;20041;-55
2022/01/11 06:02:42;;;;;;;58.55;19.48;;;4.00;99.90;;;;;;5035273;28;20033;-52
2022/01/11 06:05:08;;;;;;;57.88;20.92;;;4.00;99.90;;;;;;5036962;28;20033;-53
2022/01/11 06:07:34;;;;;;;61.70;21.63;;;4.00;99.90;;;;;;5033648;28;20040;-54
2022/01/11 06:09:59;;;;;;;59.38;21.38;;;4.00;99.90;;;;;;5032602;28;20034;-54
2022/01/11 06:12:25;;;;;;;54.13;19.20;;;4.00;99.90;;;;;;5032761;28;20056;-56
2022/01/11 06:14:50;;;;;;;57.40;19.23;;;4.00;99.90;;;;;;5033197;28;20064;-54
2022/01/11 06:17:16;;;;;;;53.05;20.25;;;4.00;99.90;;;;;;5032516;28;20091;-54
2022/01/11 06:19:42;;;;;;;59.00;18.63;;;4.00;99.90;;;;;;5032566;28;20068;-55
2022/01/11 06:22:07;;;;;;;54.80;19.15;;;4.00;99.90;;;;;;5031554;28;20026;-55
2022/01/11 06:24:33;;;;;;;47.13;18.48;;;4.00;99.90;;;;;;5033346;28;20410;-53
2022/01/11 06:26:58;;;;;;;54.33;19.38;;;4.00;99.90;;;;;;5029559;28;20248;-53
2022/01/11 06:29:24;;;;;;;54.58;19.73;;;4.00;99.90;;;;;;5030747;28;20486;-54
2022/01/11 06:31:50;;;;;;;52.60;18.42;;;4.00;99.90;;;;;;5032933;28;20116;-54
2022/01/11 06:34:15;;;;;;;52.10;19.50;;;4.10;99.90;;;;;;5032377;28;20033;-56
2022/01/11 06:36:41;;;;;;;51.95;17.90;;;4.10;99.90;;;;;;5032173;28;20112;-57
2022/01/11 06:39:07;;;;;;;59.60;19.70;;;4.10;99.90;;;;;;5032838;28;20048;-56
2022/01/11 06:41:32;;;;;;;51.28;18.48;;;4.10;99.90;;;;;;5029495;28;20048;-57
2022/01/11 06:43:58;;;;;;;53.28;17.98;;;4.20;99.90;;;;;;5028766;28;20403;-55
2022/01/11 06:46:24;;;;;;;57.90;19.45;;;4.10;99.90;;;;;;5032615;28;20026;-56
2022/01/11 06:48:52;;;;;;;49.80;19.27;;;4.20;99.90;;;;;;5032144;28;20087;-56
2022/01/11 06:51:19;;;;;;;49.80;17.70;;;4.20;99.90;;;;;;5029773;28;20053;-56
2022/01/11 06:53:45;;;;;;;49.55;17.17;;;4.20;99.90;;;;;;5035137;28;20120;-55
2022/01/11 06:56:11;;;;;;;56.97;18.63;;;4.20;99.90;;;;;;5024854;28;20029;-54
2022/01/11 06:58:38;;;;;;;57.70;19.27;;;4.20;99.90;;;;;;5028159;28;20031;-55
2022/01/11 07:01:04;;;;;;;55.33;18.95;;;4.20;99.90;;;;;;5030187;28;20033;-55
2022/01/11 07:03:30;;;;;;;51.63;18.98;;;4.30;99.90;;;;;;5026271;28;20060;-56
2022/01/11 07:05:56;;;;;;;48.65;18.60;;;4.30;99.90;;;;;;5025318;28;20060;-57
2022/01/11 07:08:21;;;;;;;56.70;20.60;;;4.30;99.90;;;;;;5029530;28;20056;-52
2022/01/11 07:10:47;;;;;;;48.85;18.98;;;4.30;99.90;;;;;;5031022;28;20029;-53
2022/01/11 07:13:13;;;;;;;51.53;20.33;;;4.20;99.90;;;;;;5029999;28;20121;-53
2022/01/11 07:15:39;;;;;;;63.13;21.10;;;4.20;99.90;;;;;;5030651;28;20565;-55
2022/01/11 07:18:09;;;;;;;58.10;20.98;;;4.20;99.90;;;;;;5029776;28;20120;-55
2022/01/11 07:20:35;;;;;;;56.05;20.13;;;4.10;99.90;;;;;;5028180;28;20041;-56
2022/01/11 07:23:01;;;;;;;57.67;20.70;;;4.10;99.90;;;;;;5025562;28;20030;-57
2022/01/11 07:25:30;;;;;;;67.07;22.80;;;4.20;99.90;;;;;;5029364;28;20036;-56
2022/01/11 07:27:56;;;;;;;58.92;21.75;;;4.10;99.90;;;;;;5030452;28;20029;-57
2022/01/11 07:30:24;;;;;;;55.55;22.13;;;4.20;99.90;;;;;;5027286;28;20025;-53
2022/01/11 07:32:49;;;;;;;65.85;23.20;;;4.20;99.90;;;;;;5030095;28;20029;-54
2022/01/11 07:35:15;;;;;;;66.15;22.27;;;4.20;99.90;;;;;;5021984;28;20552;-59
2022/01/11 07:37:41;;;;;;;65.20;20.65;;;4.10;99.90;;;;;;5025320;28;20030;-58
2022/01/11 07:40:07;;;;;;;69.13;22.85;;;4.00;99.90;;;;;;5028197;28;20029;-58
2022/01/11 07:42:33;;;;;;;69.32;24.15;;;4.00;99.90;;;;;;5029244;28;20120;-58
2022/01/11 07:44:58;;;;;;;72.82;23.38;;;4.00;99.90;;;;;;5043799;28;20104;-58
2022/01/11 07:47:24;;;;;;;56.25;21.35;;;4.00;99.90;;;;;;5029019;28;20034;-60
2022/01/11 07:49:50;;;;;;;55.80;20.42;;;4.00;99.90;;;;;;5029687;28;20088;-59
2022/01/11 07:52:16;;;;;;;59.72;18.77;;;4.00;99.90;;;;;;5028395;28;20033;-58
2022/01/11 07:54:42;;;;;;;58.10;20.58;;;4.00;99.90;;;;;;5029898;28;20041;-59
2022/01/11 07:57:08;;;;;;;61.65;22.25;;;4.00;99.90;;;;;;5029627;28;20056;-58
2022/01/11 07:59:34;;;;;;;62.13;22.55;;;4.00;99.90;;;;;;5029112;28;20475;-59
2022/01/11 08:02:00;;;;;;;66.97;22.55;;;4.00;99.90;;;;;;5029653;28;20159;-56
2022/01/11 08:04:30;;;;;;;58.92;21.40;;;4.00;99.90;;;;;;5026936;28;20482;-58
2022/01/11 08:06:57;;;;;;;64.15;20.80;;;4.10;99.90;;;;;;5030888;28;20060;-56
2022/01/11 08:09:22;;;;;;;70.68;23.13;;;4.10;99.90;;;;;;5027758;28;20033;-56
2022/01/11 08:11:50;;;;;;;67.40;22.65;;;4.10;99.90;;;;;;5029655;28;20037;-57
2022/01/11 08:14:15;;;;;;;63.05;22.30;;;4.10;99.90;;;;;;5028318;28;20171;-60
2022/01/11 08:16:41;;;;;;;56.15;18.55;;;4.20;99.90;;;;;;5029267;28;20458;-60
2022/01/11 08:19:07;;;;;;;68.55;22.98;;;4.20;99.90;;;;;;5024122;28;20033;-59
2022/01/11 08:21:33;;;;;;;65.25;22.08;;;4.20;99.90;;;;;;5026832;28;20513;-58
2022/01/11 08:23:59;;;;;;;58.75;20.15;;;4.20;99.90;;;;;;5032733;28;20083;-59
2022/01/11 08:26:24;;;;;;;63.60;22.13;;;4.20;99.90;;;;;;5029451;28;20027;-55
2022/01/11 08:28:50;;;;;;;63.30;20.02;;;4.10;99.90;;;;;;5028493;28;20037;-57
2022/01/11 08:31:15;;;;;;;64.40;22.33;;;4.10;99.90;;;;;;5028772;28;20018;-55
2022/01/11 08:33:41;;;;;;;54.80;18.42;;;4.10;99.90;;;;;;5027121;28;20039;-57
2022/01/11 08:36:07;;;;;;;57.17;20.92;;;4.10;99.90;;;;;;5029758;28;20402;-58
2022/01/11 08:38:34;;;;;;;68.18;22.50;;;4.20;99.90;;;;;;5027729;28;20037;-58
2022/01/11 08:41:00;;;;;;;52.15;18.73;;;4.20;99.90;;;;;;5028317;28;20044;-57
2022/01/11 08:43:25;;;;;;;59.15;18.17;;;4.20;99.90;;;;;;5027707;28;20021;-56
2022/01/11 08:45:51;;;;;;;58.00;20.13;;;4.10;99.90;;;;;;5029177;28;20025;-57
2022/01/11 08:48:16;;;;;;;59.92;20.98;;;4.20;99.90;;;;;;5027269;28;20038;-57
2022/01/11 08:50:42;;;;;;;54.67;19.95;;;4.20;99.90;;;;;;5026681;28;20069;-56
2022/01/11 08:53:08;;;;;;;67.30;20.42;;;4.30;99.90;;;;;;5028543;28;20029;-59
2022/01/11 08:55:34;;;;;;;58.60;21.58;;;4.40;99.90;;;;;;5028671;28;20029;-57
2022/01/11 08:58:00;;;;;;;56.20;21.33;;;4.40;99.90;;;;;;5028134;28;20128;-57
2022/01/11 09:00:26;;;;;;;69.50;22.23;;;4.40;99.90;;;;;;5020980;28;20104;-57
2022/01/11 09:02:53;;;;;;;58.00;20.98;;;4.50;99.90;;;;;;5030013;28;20459;-58
2022/01/11 09:05:20;;;;;;;57.08;19.67;;;4.50;99.90;;;;;;5027887;28;20610;-59
2022/01/11 09:07:46;;;;;;;43.35;14.90;;;4.50;99.90;;;;;;5028918;28;20033;-58
2022/01/11 09:10:12;;;;;;;45.20;16.73;;;4.50;99.90;;;;;;5026032;28;20045;-58
2022/01/11 09:12:38;;;;;;;53.00;18.75;;;4.40;99.90;;;;;;5028288;28;20055;-58
2022/01/11 09:15:07;;;;;;;42.00;17.67;;;4.40;99.90;;;;;;5028759;28;20075;-58
2022/01/11 09:17:34;;;;;;;49.60;17.63;;;4.50;99.90;;;;;;5032175;28;20018;-58
2022/01/11 09:19:59;;;;;;;42.22;15.80;;;4.50;99.90;;;;;;5030952;28;20045;-58
2022/01/11 09:22:26;;;;;;;41.20;15.07;;;4.60;99.90;;;;;;5032464;28;20525;-58
2022/01/11 09:24:51;;;;;;;42.00;14.98;;;4.50;99.90;;;;;;5030391;28;20029;-56
2022/01/11 09:27:17;;;;;;;45.88;15.35;;;4.50;99.90;;;;;;5031890;28;20107;-57
2022/01/11 09:29:43;;;;;;;46.72;15.60;;;4.60;99.90;;;;;;5030817;28;20037;-58
2022/01/11 09:32:11;;;;;;;42.33;15.80;;;4.70;99.90;;;;;;5032378;28;20033;-56
2022/01/11 09:34:39;;;;;;;41.17;15.75;;;4.70;99.90;;;;;;5031882;28;20041;-56
2022/01/11 09:37:05;;;;;;;46.03;17.17;;;4.70;99.90;;;;;;5031342;28;20036;-57
2022/01/11 09:39:31;;;;;;;42.67;16.48;;;4.80;99.90;;;;;;5030881;28;20380;-57
2022/01/11 09:41:59;;;;;;;45.30;17.48;;;4.70;99.90;;;;;;5031920;28;20049;-57
2022/01/11 09:44:25;;;;;;;48.88;19.63;;;4.70;99.90;;;;;;5029951;28;20554;-57
2022/01/11 09:46:52;;;;;;;58.28;19.08;;;4.70;99.90;;;;;;5032141;28;20030;-58
2022/01/11 09:49:18;;;;;;;51.30;19.27;;;4.80;99.90;;;;;;5029335;28;20036;-56
2022/01/11 09:51:44;;;;;;;59.75;20.17;;;4.90;99.90;;;;;;5031755;28;20034;-59
2022/01/11 09:54:12;;;;;;;50.47;19.30;;;4.80;99.90;;;;;;5030653;28;20108;-58
2022/01/11 09:56:38;;;;;;;53.75;20.85;;;4.80;99.90;;;;;;5031530;28;20040;-59
2022/01/11 09:59:05;;;;;;;51.05;19.30;;;4.80;99.90;;;;;;5031078;28;20278;-57
2022/01/11 10:01:31;;;;;;;48.75;17.50;;;4.80;99.90;;;;;;5030609;28;20034;-60
2022/01/11 10:04:06;;;;;;;53.40;17.52;;;4.80;99.90;;;;;;5030672;28;20116;-57
2022/01/11 10:06:33;;;;;;;48.70;18.02;;;4.80;99.90;;;;;;5023190;28;20021;-59
2022/01/11 10:09:10;;;;;;;53.33;18.95;;;4.80;99.90;;;;;;5031506;28;20038;-59
2022/01/11 10:11:42;;;;;;;56.20;18.75;;;4.80;99.90;;;;;;5030188;28;20021;-56
2022/01/11 10:14:23;;;;;;;43.47;18.73;;;4.80;99.90;;;;;;5032114;28;20025;-58
2022/01/11 10:17:02;;;;;;;48.00;19.58;;;4.90;99.90;;;;;;5030771;28;20030;-59
2022/01/11 10:19:27;;;;;;;51.83;19.42;;;4.90;99.90;;;;;;5029906;28;20036;-57
2022/01/11 10:21:54;;;;;;;54.08;19.70;;;5.10;99.90;;;;;;5028275;28;20030;-55
2022/01/11 10:24:42;;;;;;;44.72;17.38;;;5.10;99.90;;;;;;5034030;28;20082;-58
2022/01/11 10:27:28;;;;;;;48.35;17.60;;;5.20;99.90;;;;;;5030990;28;20121;-59
2022/01/11 10:30:08;;;;;;;45.35;16.80;;;5.20;99.90;;;;;;5030885;28;20033;-56
2022/01/11 10:32:47;;;;;;;46.00;16.10;;;5.20;99.90;;;;;;5030419;28;20379;-57
2022/01/11 10:35:26;;;;;;;44.13;16.83;;;5.20;99.90;;;;;;5030484;28;20409;-59
2022/01/11 10:37:54;;;;;;;62.03;21.45;;;5.10;99.90;;;;;;5030404;28;20025;-58
2022/01/11 10:40:24;;;;;;;44.97;16.58;;;5.10;99.90;;;;;;5028969;28;20061;-58
2022/01/11 10:43:01;;;;;;;43.15;16.30;;;5.20;99.90;;;;;;5031208;28;20106;-58
2022/01/11 10:45:38;;;;;;;54.83;16.23;;;5.20;99.90;;;;;;5029731;28;20113;-57
2022/01/11 10:48:09;;;;;;;37.75;15.25;;;5.00;99.90;;;;;;5031005;28;20040;-60
2022/01/11 10:50:40;;;;;;;42.95;15.48;;;5.00;99.90;;;;;;5028470;28;20148;-58
2022/01/11 10:53:38;;;;;;;44.58;15.00;;;4.90;99.90;;;;;;5031020;28;20037;-58
2022/01/11 10:56:04;;;;;;;47.60;16.23;;;4.80;99.90;;;;;;5027474;28;20045;-60
2022/01/11 10:58:36;;;;;;;49.78;16.08;;;4.90;99.90;;;;;;5029392;28;20033;-59
2022/01/11 11:01:03;;;;;;;42.85;16.35;;;4.90;99.90;;;;;;5030370;28;20514;-60
2022/01/11 11:03:32;;;;;;;47.83;16.40;;;4.90;99.90;;;;;;5027363;28;20030;-59
2022/01/11 11:05:58;;;;;;;43.80;15.73;;;5.00;99.90;;;;;;5030598;28;20124;-58
2022/01/11 11:08:30;;;;;;;40.75;15.68;;;5.20;99.90;;;;;;5025299;28;20033;-58
2022/01/11 11:10:56;;;;;;;;;;;5.40;99.90;;;;;;5024482;28;20048;-55
2022/01/11 11:13:28;;;;;;;37.40;14.40;;;5.30;99.90;;;;;;5018317;28;20374;-60
2022/01/11 11:15:57;;;;;;;40.85;15.43;;;5.40;99.90;;;;;;5030070;28;20044;-58
2022/01/11 11:18:37;;;;;;;49.05;15.75;;;5.50;99.90;;;;;;5026182;28;20034;-58
2022/01/11 11:21:14;;;;;;;36.38;14.90;;;5.70;99.90;;;;;;5028280;28;20048;-56
2022/01/11 11:23:40;;;;;;;30.98;13.45;;;5.60;99.90;;;;;;5028759;28;20475;-59
2022/01/11 11:26:06;;;;;;;37.95;13.82;;;5.50;99.90;;;;;;5029865;28;20018;-59
2022/01/11 11:28:33;;;;;;;37.83;15.50;;;5.40;99.90;;;;;;5028475;28;20053;-57
2022/01/11 11:30:59;;;;;;;42.20;16.30;;;5.20;99.90;;;;;;5028811;28;20075;-57
2022/01/11 11:33:25;;;;;;;37.33;16.70;;;5.30;99.90;;;;;;5028634;28;20029;-60
2022/01/11 11:35:51;;;;;;;37.50;15.73;;;5.40;99.90;;;;;;5023955;28;20048;-58
2022/01/11 11:38:21;;;;;;;35.97;16.10;;;5.50;99.90;;;;;;5028144;28;20026;-58
2022/01/11 11:40:54;;;;;;;40.15;15.30;;;5.70;99.90;;;;;;5027060;28;20116;-59
2022/01/11 11:43:21;;;;;;;37.65;15.95;;;5.80;99.90;;;;;;5009838;28;20109;-57
2022/01/11 11:45:47;;;;;;;37.08;15.27;;;5.60;99.90;;;;;;5019295;28;20061;-58
2022/01/11 11:48:15;;;;;;;36.97;14.65;;;5.60;99.90;;;;;;5029314;28;20505;-59
2022/01/11 11:50:57;;;;;;;41.40;15.52;;;5.60;99.90;;;;;;5029058;28;20056;-57
2022/01/11 11:53:36;;;;;;;39.05;13.82;;;5.70;99.90;;;;;;5029535;28;20025;-57
2022/01/11 11:56:19;;;;;;;37.47;14.70;;;5.70;99.90;;;;;;5026907;28;20447;-55
2022/01/11 11:58:50;;;;;;;45.75;15.30;;;5.80;99.90;;;;;;5029339;28;20029;-59
2022/01/11 12:01:58;;;;;;;36.47;14.45;;;5.70;99.90;;;;;;5030420;28;20038;-55
2022/01/11 12:04:27;;;;;;;36.65;13.30;;;6.10;99.90;;;;;;5008552;28;20096;-58
2022/01/11 12:06:55;;;;;;;32.72;12.95;;;6.60;99.90;;;;;;5027832;28;20045;-55
2022/01/11 12:09:21;;;;;;;27.60;13.45;;;7.00;99.90;;;;;;5030875;28;20041;-56
2022/01/11 12:11:51;;;;;;;33.22;13.50;;;7.10;99.90;;;;;;5031389;28;20028;-57
2022/01/11 12:14:30;;;;;;;38.92;14.38;;;6.80;99.90;;;;;;5030400;28;20037;-59
2022/01/11 12:17:13;;;;;;;35.58;14.07;;;6.90;99.90;;;;;;5030716;28;20080;-59
2022/01/11 12:19:47;;;;;;;32.85;14.60;;;7.10;99.90;;;;;;5031456;28;20025;-59
2022/01/11 12:22:14;;;;;;;29.50;12.77;;;6.50;99.90;;;;;;5030215;28;20022;-59
2022/01/11 12:24:45;;;;;;;34.15;13.70;;;6.30;99.90;;;;;;5030884;28;20042;-60
2022/01/11 12:27:11;;;;;;;31.95;12.77;;;6.30;99.90;;;;;;5030083;28;20479;-57
2022/01/11 12:29:50;;;;;;;34.15;13.05;;;6.40;99.90;;;;;;5029723;28;20033;-57
2022/01/11 12:32:18;;;;;;;29.15;11.75;;;6.60;99.90;;;;;;5030374;28;20026;-59
2022/01/11 12:34:47;;;;;;;33.50;12.13;;;6.60;99.90;;;;;;5029945;28;20039;-58
2022/01/11 12:37:33;;;;;;;31.27;12.50;;;6.60;99.90;;;;;;5031044;28;20044;-57
2022/01/11 12:40:01;;;;;;;40.08;16.50;;;6.70;99.90;;;;;;5028502;28;20479;-58
2022/01/11 12:42:27;;;;;;;32.10;12.18;;;6.80;99.90;;;;;;5026099;28;20068;-57